sensor_id;sensor_type;location;lat;lon;timestamp;P1;durP1;ratioP1;P2;durP2;ratioP2
52126;SDS011;38120;53.176;6.614;2022-12-20T00:01:06;7.15;;;4.28;;
52126;SDS011;38120;53.176;6.614;2022-12-20T00:03:37;9.57;;;4.70;;
52126;SDS011;38120;53.176;6.614;2022-12-20T00:06:03;7.80;;;4.72;;
52126;SDS011;38120;53.176;6.614;2022-12-20T00:08:29;12.82;;;4.18;;
52126;SDS011;38120;53.176;6.614;2022-12-20T00:15:49;8.00;;;4.50;;
52126;SDS011;38120;53.176;6.614;2022-12-20T00:18:15;7.47;;;4.00;;
52126;SDS011;38120;53.176;6.614;2022-12-20T00:20:40;7.40;;;4.30;;
52126;SDS011;38120;53.176;6.614;2022-12-20T00:23:06;8.97;;;4.27;;
52126;SDS011;38120;53.176;6.614;2022-12-20T00:25:32;10.83;;;4.50;;
52126;SDS011;38120;53.176;6.614;2022-12-20T00:27:57;5.90;;;3.97;;
52126;SDS011;38120;53.176;6.614;2022-12-20T00:30:23;9.50;;;4.53;;
52126;SDS011;38120;53.176;6.614;2022-12-20T00:32:49;6.37;;;4.10;;
52126;SDS011;38120;53.176;6.614;2022-12-20T00:35:14;5.80;;;3.97;;
52126;SDS011;38120;53.176;6.614;2022-12-20T00:37:40;9.33;;;4.47;;
52126;SDS011;38120;53.176;6.614;2022-12-20T00:40:06;6.72;;;3.83;;
52126;SDS011;38120;53.176;6.614;2022-12-20T00:42:32;8.40;;;4.07;;
52126;SDS011;38120;53.176;6.614;2022-12-20T00:44:58;7.97;;;4.00;;
52126;SDS011;38120;53.176;6.614;2022-12-20T00:47:23;6.20;;;3.97;;
52126;SDS011;38120;53.176;6.614;2022-12-20T00:49:49;5.87;;;3.23;;
52126;SDS011;38120;53.176;6.614;2022-12-20T00:52:15;6.27;;;3.83;;
52126;SDS011;38120;53.176;6.614;2022-12-20T00:54:40;9.53;;;3.97;;
52126;SDS011;38120;53.176;6.614;2022-12-20T00:57:06;6.57;;;3.60;;
52126;SDS011;38120;53.176;6.614;2022-12-20T00:59:32;5.83;;;3.73;;
52126;SDS011;38120;53.176;6.614;2022-12-20T01:04:24;6.95;;;3.28;;
52126;SDS011;38120;53.176;6.614;2022-12-20T01:06:49;7.97;;;4.47;;
52126;SDS011;38120;53.176;6.614;2022-12-20T01:09:15;7.33;;;3.73;;
52126;SDS011;38120;53.176;6.614;2022-12-20T01:11:41;7.40;;;3.43;;
52126;SDS011;38120;53.176;6.614;2022-12-20T01:14:09;6.90;;;3.85;;
52126;SDS011;38120;53.176;6.614;2022-12-20T01:16:39;4.75;;;3.00;;
52126;SDS011;38120;53.176;6.614;2022-12-20T01:19:07;7.78;;;3.15;;
52126;SDS011;38120;53.176;6.614;2022-12-20T01:21:34;9.45;;;3.78;;
52126;SDS011;38120;53.176;6.614;2022-12-20T01:24:00;9.55;;;3.90;;
52126;SDS011;38120;53.176;6.614;2022-12-20T01:26:26;11.93;;;3.75;;
52126;SDS011;38120;53.176;6.614;2022-12-20T01:28:54;6.43;;;3.55;;
52126;SDS011;38120;53.176;6.614;2022-12-20T01:31:22;5.60;;;3.65;;
52126;SDS011;38120;53.176;6.614;2022-12-20T01:33:48;8.15;;;3.53;;
52126;SDS011;38120;53.176;6.614;2022-12-20T01:36:19;8.93;;;3.83;;
52126;SDS011;38120;53.176;6.614;2022-12-20T01:38:49;5.10;;;2.88;;
52126;SDS011;38120;53.176;6.614;2022-12-20T01:41:16;8.80;;;3.53;;
52126;SDS011;38120;53.176;6.614;2022-12-20T01:43:47;8.07;;;3.78;;
52126;SDS011;38120;53.176;6.614;2022-12-20T01:46:16;7.32;;;4.18;;
52126;SDS011;38120;53.176;6.614;2022-12-20T01:48:43;6.95;;;3.55;;
52126;SDS011;38120;53.176;6.614;2022-12-20T01:51:17;6.55;;;3.20;;
52126;SDS011;38120;53.176;6.614;2022-12-20T01:53:43;7.32;;;4.05;;
52126;SDS011;38120;53.176;6.614;2022-12-20T01:56:11;7.10;;;3.85;;
52126;SDS011;38120;53.176;6.614;2022-12-20T01:58:36;7.73;;;3.90;;
52126;SDS011;38120;53.176;6.614;2022-12-20T02:01:04;6.05;;;3.22;;
52126;SDS011;38120;53.176;6.614;2022-12-20T02:03:30;6.50;;;3.15;;
52126;SDS011;38120;53.176;6.614;2022-12-20T02:05:57;9.13;;;3.47;;
52126;SDS011;38120;53.176;6.614;2022-12-20T02:08:31;6.05;;;3.67;;
52126;SDS011;38120;53.176;6.614;2022-12-20T02:16:27;5.65;;;3.00;;
52126;SDS011;38120;53.176;6.614;2022-12-20T02:18:58;6.25;;;3.20;;
52126;SDS011;38120;53.176;6.614;2022-12-20T02:22:21;8.18;;;3.60;;
52126;SDS011;38120;53.176;6.614;2022-12-20T02:25:02;6.05;;;3.70;;
52126;SDS011;38120;53.176;6.614;2022-12-20T02:27:58;6.75;;;3.42;;
52126;SDS011;38120;53.176;6.614;2022-12-20T02:30:33;5.38;;;3.22;;
52126;SDS011;38120;53.176;6.614;2022-12-20T02:33:02;4.88;;;2.92;;
52126;SDS011;38120;53.176;6.614;2022-12-20T02:35:34;5.88;;;3.70;;
52126;SDS011;38120;53.176;6.614;2022-12-20T02:38:02;6.03;;;3.50;;
52126;SDS011;38120;53.176;6.614;2022-12-20T02:40:48;5.38;;;3.15;;
52126;SDS011;38120;53.176;6.614;2022-12-20T02:43:17;6.15;;;3.42;;
52126;SDS011;38120;53.176;6.614;2022-12-20T02:46:04;7.15;;;3.40;;
52126;SDS011;38120;53.176;6.614;2022-12-20T02:48:31;5.85;;;3.03;;
52126;SDS011;38120;53.176;6.614;2022-12-20T02:50:58;6.72;;;3.28;;
52126;SDS011;38120;53.176;6.614;2022-12-20T02:53:26;6.00;;;3.40;;
52126;SDS011;38120;53.176;6.614;2022-12-20T02:56:13;7.05;;;3.55;;
52126;SDS011;38120;53.176;6.614;2022-12-20T02:58:48;6.80;;;3.05;;
52126;SDS011;38120;53.176;6.614;2022-12-20T03:01:30;6.28;;;3.72;;
52126;SDS011;38120;53.176;6.614;2022-12-20T03:04:01;6.05;;;3.38;;
52126;SDS011;38120;53.176;6.614;2022-12-20T03:06:27;7.72;;;3.90;;
52126;SDS011;38120;53.176;6.614;2022-12-20T03:08:54;7.00;;;3.20;;
52126;SDS011;38120;53.176;6.614;2022-12-20T03:11:20;5.95;;;3.90;;
52126;SDS011;38120;53.176;6.614;2022-12-20T03:13:47;5.63;;;3.47;;
52126;SDS011;38120;53.176;6.614;2022-12-20T03:16:12;7.23;;;4.10;;
52126;SDS011;38120;53.176;6.614;2022-12-20T03:18:38;5.83;;;3.80;;
52126;SDS011;38120;53.176;6.614;2022-12-20T03:21:04;7.67;;;4.13;;
52126;SDS011;38120;53.176;6.614;2022-12-20T03:23:29;8.55;;;3.67;;
52126;SDS011;38120;53.176;6.614;2022-12-20T03:25:55;6.85;;;4.53;;
52126;SDS011;38120;53.176;6.614;2022-12-20T03:28:21;7.22;;;4.00;;
52126;SDS011;38120;53.176;6.614;2022-12-20T03:30:47;5.83;;;3.00;;
52126;SDS011;38120;53.176;6.614;2022-12-20T03:33:15;7.60;;;3.58;;
52126;SDS011;38120;53.176;6.614;2022-12-20T03:35:41;6.07;;;3.45;;
52126;SDS011;38120;53.176;6.614;2022-12-20T03:38:07;10.00;;;4.65;;
52126;SDS011;38120;53.176;6.614;2022-12-20T03:40:32;6.43;;;3.60;;
52126;SDS011;38120;53.176;6.614;2022-12-20T03:42:58;6.30;;;3.50;;
52126;SDS011;38120;53.176;6.614;2022-12-20T03:45:24;6.67;;;4.00;;
52126;SDS011;38120;53.176;6.614;2022-12-20T03:47:50;5.60;;;3.63;;
52126;SDS011;38120;53.176;6.614;2022-12-20T03:50:20;7.32;;;3.28;;
52126;SDS011;38120;53.176;6.614;2022-12-20T03:52:46;5.97;;;3.60;;
52126;SDS011;38120;53.176;6.614;2022-12-20T03:55:12;6.93;;;3.90;;
52126;SDS011;38120;53.176;6.614;2022-12-20T03:57:38;7.63;;;3.92;;
52126;SDS011;38120;53.176;6.614;2022-12-20T04:00:04;4.25;;;2.90;;
52126;SDS011;38120;53.176;6.614;2022-12-20T04:04:56;7.57;;;4.10;;
52126;SDS011;38120;53.176;6.614;2022-12-20T04:07:22;6.23;;;3.87;;
52126;SDS011;38120;53.176;6.614;2022-12-20T04:09:47;8.00;;;3.70;;
52126;SDS011;38120;53.176;6.614;2022-12-20T04:12:13;7.97;;;3.60;;
52126;SDS011;38120;53.176;6.614;2022-12-20T04:14:39;13.87;;;3.93;;
52126;SDS011;38120;53.176;6.614;2022-12-20T04:17:04;6.00;;;3.77;;
52126;SDS011;38120;53.176;6.614;2022-12-20T04:19:30;6.47;;;3.63;;
52126;SDS011;38120;53.176;6.614;2022-12-20T04:21:56;6.40;;;3.60;;
52126;SDS011;38120;53.176;6.614;2022-12-20T04:24:22;7.10;;;3.63;;
52126;SDS011;38120;53.176;6.614;2022-12-20T04:26:48;6.32;;;3.40;;
52126;SDS011;38120;53.176;6.614;2022-12-20T04:29:14;5.57;;;3.75;;
52126;SDS011;38120;53.176;6.614;2022-12-20T04:31:40;6.57;;;3.63;;
52126;SDS011;38120;53.176;6.614;2022-12-20T04:34:06;8.27;;;4.32;;
52126;SDS011;38120;53.176;6.614;2022-12-20T04:36:32;6.65;;;4.18;;
52126;SDS011;38120;53.176;6.614;2022-12-20T04:38:57;7.18;;;3.83;;
52126;SDS011;38120;53.176;6.614;2022-12-20T04:41:23;9.80;;;4.13;;
52126;SDS011;38120;53.176;6.614;2022-12-20T04:43:52;9.55;;;4.25;;
52126;SDS011;38120;53.176;6.614;2022-12-20T04:46:20;7.43;;;4.35;;
52126;SDS011;38120;53.176;6.614;2022-12-20T04:48:46;8.60;;;4.55;;
52126;SDS011;38120;53.176;6.614;2022-12-20T04:51:12;7.67;;;3.67;;
52126;SDS011;38120;53.176;6.614;2022-12-20T04:53:38;7.97;;;4.38;;
52126;SDS011;38120;53.176;6.614;2022-12-20T04:56:17;8.18;;;4.15;;
52126;SDS011;38120;53.176;6.614;2022-12-20T04:58:45;6.82;;;3.78;;
52126;SDS011;38120;53.176;6.614;2022-12-20T05:01:13;7.43;;;4.20;;
52126;SDS011;38120;53.176;6.614;2022-12-20T05:03:38;7.43;;;4.53;;
52126;SDS011;38120;53.176;6.614;2022-12-20T05:06:05;6.93;;;3.92;;
52126;SDS011;38120;53.176;6.614;2022-12-20T05:08:32;7.03;;;5.25;;
52126;SDS011;38120;53.176;6.614;2022-12-20T05:10:58;7.13;;;4.20;;
52126;SDS011;38120;53.176;6.614;2022-12-20T05:13:23;7.77;;;4.07;;
52126;SDS011;38120;53.176;6.614;2022-12-20T05:15:50;7.93;;;4.60;;
52126;SDS011;38120;53.176;6.614;2022-12-20T05:18:17;7.10;;;3.75;;
52126;SDS011;38120;53.176;6.614;2022-12-20T05:20:43;10.63;;;4.47;;
52126;SDS011;38120;53.176;6.614;2022-12-20T05:23:09;7.25;;;4.43;;
52126;SDS011;38120;53.176;6.614;2022-12-20T05:25:54;7.05;;;3.53;;
52126;SDS011;38120;53.176;6.614;2022-12-20T05:28:38;6.18;;;3.45;;
52126;SDS011;38120;53.176;6.614;2022-12-20T05:31:10;5.93;;;4.10;;
52126;SDS011;38120;53.176;6.614;2022-12-20T05:33:35;8.25;;;4.30;;
52126;SDS011;38120;53.176;6.614;2022-12-20T05:36:01;6.17;;;3.63;;
52126;SDS011;38120;53.176;6.614;2022-12-20T05:38:27;5.07;;;3.07;;
52126;SDS011;38120;53.176;6.614;2022-12-20T05:40:52;6.73;;;3.80;;
52126;SDS011;38120;53.176;6.614;2022-12-20T05:43:18;7.27;;;4.63;;
52126;SDS011;38120;53.176;6.614;2022-12-20T05:45:49;6.07;;;3.70;;
52126;SDS011;38120;53.176;6.614;2022-12-20T05:48:16;9.40;;;3.53;;
52126;SDS011;38120;53.176;6.614;2022-12-20T05:50:43;7.65;;;3.17;;
52126;SDS011;38120;53.176;6.614;2022-12-20T05:53:10;8.27;;;3.65;;
52126;SDS011;38120;53.176;6.614;2022-12-20T05:55:37;7.10;;;3.67;;
52126;SDS011;38120;53.176;6.614;2022-12-20T05:58:04;6.25;;;3.40;;
52126;SDS011;38120;53.176;6.614;2022-12-20T06:00:32;7.22;;;3.70;;
52126;SDS011;38120;53.176;6.614;2022-12-20T06:02:58;7.05;;;3.95;;
52126;SDS011;38120;53.176;6.614;2022-12-20T06:05:23;10.70;;;4.10;;
52126;SDS011;38120;53.176;6.614;2022-12-20T06:07:49;8.23;;;3.70;;
52126;SDS011;38120;53.176;6.614;2022-12-20T06:10:15;7.10;;;3.40;;
52126;SDS011;38120;53.176;6.614;2022-12-20T06:12:47;4.50;;;2.73;;
52126;SDS011;38120;53.176;6.614;2022-12-20T06:15:12;8.50;;;3.28;;
52126;SDS011;38120;53.176;6.614;2022-12-20T06:17:39;5.40;;;3.20;;
52126;SDS011;38120;53.176;6.614;2022-12-20T06:20:05;5.88;;;3.60;;
52126;SDS011;38120;53.176;6.614;2022-12-20T06:24:57;6.47;;;3.70;;
52126;SDS011;38120;53.176;6.614;2022-12-20T06:27:23;9.60;;;3.33;;
52126;SDS011;38120;53.176;6.614;2022-12-20T06:29:49;6.95;;;2.65;;
52126;SDS011;38120;53.176;6.614;2022-12-20T06:32:18;4.70;;;3.42;;
52126;SDS011;38120;53.176;6.614;2022-12-20T06:34:44;9.05;;;3.88;;
52126;SDS011;38120;53.176;6.614;2022-12-20T06:37:11;6.07;;;3.60;;
52126;SDS011;38120;53.176;6.614;2022-12-20T06:39:37;5.80;;;3.63;;
52126;SDS011;38120;53.176;6.614;2022-12-20T06:42:03;5.87;;;3.30;;
52126;SDS011;38120;53.176;6.614;2022-12-20T06:44:29;5.20;;;2.95;;
52126;SDS011;38120;53.176;6.614;2022-12-20T06:46:55;6.40;;;3.80;;
52126;SDS011;38120;53.176;6.614;2022-12-20T06:49:20;10.43;;;4.60;;
52126;SDS011;38120;53.176;6.614;2022-12-20T06:51:46;7.90;;;2.85;;
52126;SDS011;38120;53.176;6.614;2022-12-20T06:54:12;6.63;;;3.05;;
52126;SDS011;38120;53.176;6.614;2022-12-20T06:56:38;5.22;;;3.15;;
52126;SDS011;38120;53.176;6.614;2022-12-20T06:59:04;7.53;;;3.40;;
52126;SDS011;38120;53.176;6.614;2022-12-20T07:01:30;7.80;;;4.35;;
52126;SDS011;38120;53.176;6.614;2022-12-20T07:03:56;8.13;;;3.93;;
52126;SDS011;38120;53.176;6.614;2022-12-20T07:06:22;7.25;;;3.75;;
52126;SDS011;38120;53.176;6.614;2022-12-20T07:08:48;5.72;;;3.38;;
52126;SDS011;38120;53.176;6.614;2022-12-20T07:11:14;6.40;;;3.80;;
52126;SDS011;38120;53.176;6.614;2022-12-20T07:13:39;6.30;;;4.30;;
52126;SDS011;38120;53.176;6.614;2022-12-20T07:16:08;7.30;;;4.50;;
52126;SDS011;38120;53.176;6.614;2022-12-20T07:18:37;8.77;;;4.93;;
52126;SDS011;38120;53.176;6.614;2022-12-20T07:21:03;7.67;;;4.53;;
52126;SDS011;38120;53.176;6.614;2022-12-20T07:23:30;9.65;;;4.50;;
52126;SDS011;38120;53.176;6.614;2022-12-20T07:25:56;7.43;;;4.47;;
52126;SDS011;38120;53.176;6.614;2022-12-20T07:28:23;8.35;;;5.35;;
52126;SDS011;38120;53.176;6.614;2022-12-20T07:30:50;13.10;;;5.10;;
52126;SDS011;38120;53.176;6.614;2022-12-20T07:33:16;7.80;;;5.00;;
52126;SDS011;38120;53.176;6.614;2022-12-20T07:35:42;8.88;;;5.35;;
52126;SDS011;38120;53.176;6.614;2022-12-20T07:38:09;7.95;;;5.05;;
52126;SDS011;38120;53.176;6.614;2022-12-20T07:40:38;7.97;;;4.95;;
52126;SDS011;38120;53.176;6.614;2022-12-20T07:43:06;9.25;;;5.60;;
52126;SDS011;38120;53.176;6.614;2022-12-20T07:45:32;6.53;;;5.00;;
52126;SDS011;38120;53.176;6.614;2022-12-20T07:47:58;7.60;;;5.77;;
52126;SDS011;38120;53.176;6.614;2022-12-20T07:50:24;8.33;;;5.07;;
52126;SDS011;38120;53.176;6.614;2022-12-20T07:52:51;7.95;;;6.03;;
52126;SDS011;38120;53.176;6.614;2022-12-20T07:55:18;8.90;;;6.30;;
52126;SDS011;38120;53.176;6.614;2022-12-20T07:57:46;9.13;;;5.57;;
52126;SDS011;38120;53.176;6.614;2022-12-20T08:00:17;9.52;;;5.30;;
52126;SDS011;38120;53.176;6.614;2022-12-20T08:05:19;6.25;;;5.10;;
52126;SDS011;38120;53.176;6.614;2022-12-20T08:10:12;8.65;;;4.72;;
52126;SDS011;38120;53.176;6.614;2022-12-20T08:12:40;8.60;;;5.18;;
52126;SDS011;38120;53.176;6.614;2022-12-20T08:15:09;6.88;;;4.18;;
52126;SDS011;38120;53.176;6.614;2022-12-20T08:17:35;7.03;;;4.57;;
52126;SDS011;38120;53.176;6.614;2022-12-20T08:20:01;8.17;;;4.67;;
52126;SDS011;38120;53.176;6.614;2022-12-20T08:24:53;6.43;;;4.00;;
52126;SDS011;38120;53.176;6.614;2022-12-20T08:27:19;11.02;;;4.93;;
52126;SDS011;38120;53.176;6.614;2022-12-20T08:29:45;8.17;;;4.77;;
52126;SDS011;38120;53.176;6.614;2022-12-20T08:32:10;8.23;;;4.10;;
52126;SDS011;38120;53.176;6.614;2022-12-20T08:34:38;7.32;;;4.50;;
52126;SDS011;38120;53.176;6.614;2022-12-20T08:37:04;5.55;;;4.13;;
52126;SDS011;38120;53.176;6.614;2022-12-20T08:39:29;8.30;;;4.67;;
52126;SDS011;38120;53.176;6.614;2022-12-20T08:41:55;8.23;;;4.38;;
52126;SDS011;38120;53.176;6.614;2022-12-20T08:44:21;9.07;;;4.30;;
52126;SDS011;38120;53.176;6.614;2022-12-20T08:46:47;8.02;;;3.47;;
52126;SDS011;38120;53.176;6.614;2022-12-20T08:49:12;7.57;;;3.93;;
52126;SDS011;38120;53.176;6.614;2022-12-20T08:51:38;7.67;;;3.27;;
52126;SDS011;38120;53.176;6.614;2022-12-20T08:54:04;5.73;;;3.57;;
52126;SDS011;38120;53.176;6.614;2022-12-20T08:56:29;7.57;;;3.93;;
52126;SDS011;38120;53.176;6.614;2022-12-20T08:58:55;5.43;;;3.20;;
52126;SDS011;38120;53.176;6.614;2022-12-20T09:01:21;5.75;;;3.60;;
52126;SDS011;38120;53.176;6.614;2022-12-20T09:03:47;4.72;;;3.05;;
52126;SDS011;38120;53.176;6.614;2022-12-20T09:06:14;6.03;;;3.30;;
52126;SDS011;38120;53.176;6.614;2022-12-20T09:08:42;5.65;;;3.17;;
52126;SDS011;38120;53.176;6.614;2022-12-20T09:13:43;6.13;;;3.17;;
52126;SDS011;38120;53.176;6.614;2022-12-20T09:16:12;5.63;;;3.22;;
52126;SDS011;38120;53.176;6.614;2022-12-20T09:18:39;7.78;;;3.72;;
52126;SDS011;38120;53.176;6.614;2022-12-20T09:21:05;6.60;;;2.88;;
52126;SDS011;38120;53.176;6.614;2022-12-20T09:23:32;7.22;;;3.10;;
52126;SDS011;38120;53.176;6.614;2022-12-20T09:26:07;7.10;;;2.85;;
52126;SDS011;38120;53.176;6.614;2022-12-20T09:28:35;7.68;;;3.05;;
52126;SDS011;38120;53.176;6.614;2022-12-20T09:31:02;4.80;;;2.80;;
52126;SDS011;38120;53.176;6.614;2022-12-20T09:33:30;5.65;;;2.83;;
52126;SDS011;38120;53.176;6.614;2022-12-20T09:36:03;6.05;;;3.20;;
52126;SDS011;38120;53.176;6.614;2022-12-20T09:38:30;7.13;;;2.85;;
52126;SDS011;38120;53.176;6.614;2022-12-20T09:41:03;6.68;;;2.80;;
52126;SDS011;38120;53.176;6.614;2022-12-20T09:43:31;6.55;;;3.10;;
52126;SDS011;38120;53.176;6.614;2022-12-20T09:45:59;9.10;;;3.05;;
52126;SDS011;38120;53.176;6.614;2022-12-20T09:48:30;5.32;;;3.10;;
52126;SDS011;38120;53.176;6.614;2022-12-20T10:01:26;5.07;;;2.80;;
52126;SDS011;38120;53.176;6.614;2022-12-20T10:15:19;4.22;;;2.40;;
52126;SDS011;38120;53.176;6.614;2022-12-20T10:17:49;4.85;;;3.03;;
52126;SDS011;38120;53.176;6.614;2022-12-20T10:20:29;4.68;;;2.70;;
52126;SDS011;38120;53.176;6.614;2022-12-20T10:22:59;6.18;;;2.83;;
52126;SDS011;38120;53.176;6.614;2022-12-20T10:25:52;6.80;;;2.67;;
52126;SDS011;38120;53.176;6.614;2022-12-20T10:28:23;5.25;;;2.60;;
52126;SDS011;38120;53.176;6.614;2022-12-20T10:30:57;4.40;;;3.13;;
52126;SDS011;38120;53.176;6.614;2022-12-20T10:33:25;7.28;;;2.60;;
52126;SDS011;38120;53.176;6.614;2022-12-20T10:35:52;4.03;;;2.40;;
52126;SDS011;38120;53.176;6.614;2022-12-20T10:38:18;4.88;;;2.72;;
52126;SDS011;38120;53.176;6.614;2022-12-20T10:43:22;5.38;;;2.70;;
52126;SDS011;38120;53.176;6.614;2022-12-20T10:48:36;4.90;;;2.50;;
52126;SDS011;38120;53.176;6.614;2022-12-20T10:53:57;9.00;;;2.70;;
52126;SDS011;38120;53.176;6.614;2022-12-20T10:56:23;5.85;;;3.40;;
52126;SDS011;38120;53.176;6.614;2022-12-20T10:59:02;7.30;;;2.63;;
52126;SDS011;38120;53.176;6.614;2022-12-20T11:01:46;4.40;;;2.28;;
52126;SDS011;38120;53.176;6.614;2022-12-20T11:04:29;5.50;;;3.42;;
52126;SDS011;38120;53.176;6.614;2022-12-20T11:06:57;4.85;;;2.80;;
52126;SDS011;38120;53.176;6.614;2022-12-20T11:14:25;7.50;;;2.55;;
52126;SDS011;38120;53.176;6.614;2022-12-20T11:16:52;7.07;;;3.38;;
52126;SDS011;38120;53.176;6.614;2022-12-20T11:27:03;7.45;;;2.67;;
52126;SDS011;38120;53.176;6.614;2022-12-20T11:37:37;4.35;;;2.95;;
52126;SDS011;38120;53.176;6.614;2022-12-20T11:43:23;6.25;;;3.03;;
52126;SDS011;38120;53.176;6.614;2022-12-20T11:46:17;6.22;;;2.25;;
52126;SDS011;38120;53.176;6.614;2022-12-20T11:49:16;5.78;;;3.13;;
52126;SDS011;38120;53.176;6.614;2022-12-20T11:51:46;5.68;;;2.83;;
52126;SDS011;38120;53.176;6.614;2022-12-20T11:54:27;4.68;;;2.70;;
52126;SDS011;38120;53.176;6.614;2022-12-20T11:56:59;5.60;;;2.63;;
52126;SDS011;38120;53.176;6.614;2022-12-20T11:59:44;6.82;;;2.97;;
52126;SDS011;38120;53.176;6.614;2022-12-20T12:02:21;5.05;;;2.80;;
52126;SDS011;38120;53.176;6.614;2022-12-20T12:05:00;6.90;;;3.72;;
52126;SDS011;38120;53.176;6.614;2022-12-20T12:07:33;7.03;;;3.70;;
52126;SDS011;38120;53.176;6.614;2022-12-20T12:10:02;6.47;;;3.20;;
52126;SDS011;38120;53.176;6.614;2022-12-20T12:12:57;6.10;;;3.38;;
52126;SDS011;38120;53.176;6.614;2022-12-20T12:15:51;6.57;;;3.63;;
52126;SDS011;38120;53.176;6.614;2022-12-20T12:18:26;6.43;;;3.28;;
52126;SDS011;38120;53.176;6.614;2022-12-20T12:26:28;8.45;;;4.22;;
52126;SDS011;38120;53.176;6.614;2022-12-20T12:28:57;5.88;;;3.13;;
52126;SDS011;38120;53.176;6.614;2022-12-20T12:34:53;9.52;;;4.47;;
52126;SDS011;38120;53.176;6.614;2022-12-20T12:43:01;6.28;;;3.80;;
52126;SDS011;38120;53.176;6.614;2022-12-20T12:45:56;7.78;;;3.63;;
52126;SDS011;38120;53.176;6.614;2022-12-20T12:48:35;6.35;;;3.97;;
52126;SDS011;38120;53.176;6.614;2022-12-20T12:51:20;7.07;;;4.13;;
52126;SDS011;38120;53.176;6.614;2022-12-20T12:56:43;10.63;;;4.25;;
52126;SDS011;38120;53.176;6.614;2022-12-20T13:11:49;6.18;;;4.15;;
52126;SDS011;38120;53.176;6.614;2022-12-20T13:19:36;7.22;;;4.25;;
52126;SDS011;38120;53.176;6.614;2022-12-20T13:37:56;6.03;;;4.30;;
52126;SDS011;38120;53.176;6.614;2022-12-20T13:40:34;8.07;;;4.55;;
52126;SDS011;38120;53.176;6.614;2022-12-20T13:43:09;6.85;;;4.43;;
52126;SDS011;38120;53.176;6.614;2022-12-20T13:51:36;8.10;;;5.07;;
52126;SDS011;38120;53.176;6.614;2022-12-20T13:56:35;10.07;;;4.70;;
52126;SDS011;38120;53.176;6.614;2022-12-20T13:59:11;6.60;;;5.45;;
52126;SDS011;38120;53.176;6.614;2022-12-20T14:01:55;8.27;;;4.75;;
52126;SDS011;38120;53.176;6.614;2022-12-20T14:04:27;9.18;;;4.95;;
52126;SDS011;38120;53.176;6.614;2022-12-20T14:07:04;7.60;;;4.57;;
52126;SDS011;38120;53.176;6.614;2022-12-20T14:12:23;10.07;;;4.95;;
52126;SDS011;38120;53.176;6.614;2022-12-20T14:14:51;8.18;;;5.65;;
52126;SDS011;38120;53.176;6.614;2022-12-20T14:17:19;10.02;;;6.32;;
52126;SDS011;38120;53.176;6.614;2022-12-20T14:22:49;9.35;;;5.60;;
52126;SDS011;38120;53.176;6.614;2022-12-20T14:30:48;7.93;;;5.45;;
52126;SDS011;38120;53.176;6.614;2022-12-20T14:36:08;7.90;;;5.65;;
52126;SDS011;38120;53.176;6.614;2022-12-20T14:38:45;9.50;;;6.80;;
52126;SDS011;38120;53.176;6.614;2022-12-20T14:44:01;9.40;;;6.55;;
52126;SDS011;38120;53.176;6.614;2022-12-20T14:46:29;9.80;;;6.82;;
52126;SDS011;38120;53.176;6.614;2022-12-20T14:51:50;8.75;;;6.95;;
52126;SDS011;38120;53.176;6.614;2022-12-20T14:56:48;11.38;;;7.18;;
52126;SDS011;38120;53.176;6.614;2022-12-20T14:59:16;11.60;;;7.85;;
52126;SDS011;38120;53.176;6.614;2022-12-20T15:01:49;13.25;;;8.48;;
52126;SDS011;38120;53.176;6.614;2022-12-20T15:04:29;12.52;;;8.38;;
52126;SDS011;38120;53.176;6.614;2022-12-20T15:06:57;11.68;;;8.65;;
52126;SDS011;38120;53.176;6.614;2022-12-20T15:09:24;13.45;;;7.57;;
52126;SDS011;38120;53.176;6.614;2022-12-20T15:11:50;9.57;;;6.93;;
52126;SDS011;38120;53.176;6.614;2022-12-20T15:16:54;15.02;;;7.57;;
52126;SDS011;38120;53.176;6.614;2022-12-20T15:19:20;13.73;;;9.73;;
52126;SDS011;38120;53.176;6.614;2022-12-20T15:21:45;14.90;;;8.93;;
52126;SDS011;38120;53.176;6.614;2022-12-20T15:24:12;10.70;;;8.38;;
52126;SDS011;38120;53.176;6.614;2022-12-20T15:26:40;14.32;;;8.95;;
52126;SDS011;38120;53.176;6.614;2022-12-20T15:29:09;18.42;;;9.98;;
52126;SDS011;38120;53.176;6.614;2022-12-20T15:31:41;14.27;;;10.32;;
52126;SDS011;38120;53.176;6.614;2022-12-20T15:34:32;14.90;;;10.23;;
52126;SDS011;38120;53.176;6.614;2022-12-20T15:36:59;13.38;;;9.70;;
52126;SDS011;38120;53.176;6.614;2022-12-20T15:39:26;16.50;;;10.85;;
52126;SDS011;38120;53.176;6.614;2022-12-20T15:41:53;13.60;;;10.27;;
52126;SDS011;38120;53.176;6.614;2022-12-20T15:44:23;13.85;;;10.50;;
52126;SDS011;38120;53.176;6.614;2022-12-20T15:46:52;17.08;;;10.50;;
52126;SDS011;38120;53.176;6.614;2022-12-20T15:51:46;15.05;;;10.30;;
52126;SDS011;38120;53.176;6.614;2022-12-20T15:54:19;14.80;;;11.30;;
52126;SDS011;38120;53.176;6.614;2022-12-20T15:56:46;15.93;;;11.32;;
52126;SDS011;38120;53.176;6.614;2022-12-20T15:59:12;16.60;;;11.57;;
52126;SDS011;38120;53.176;6.614;2022-12-20T16:01:38;18.00;;;12.10;;
52126;SDS011;38120;53.176;6.614;2022-12-20T16:04:04;19.75;;;11.45;;
52126;SDS011;38120;53.176;6.614;2022-12-20T16:06:32;17.55;;;11.70;;
52126;SDS011;38120;53.176;6.614;2022-12-20T16:08:58;16.15;;;12.05;;
52126;SDS011;38120;53.176;6.614;2022-12-20T16:11:28;18.80;;;12.48;;
52126;SDS011;38120;53.176;6.614;2022-12-20T16:13:55;16.10;;;11.40;;
52126;SDS011;38120;53.176;6.614;2022-12-20T16:16:29;15.45;;;10.52;;
52126;SDS011;38120;53.176;6.614;2022-12-20T16:18:56;15.52;;;11.05;;
52126;SDS011;38120;53.176;6.614;2022-12-20T16:21:26;15.98;;;12.45;;
52126;SDS011;38120;53.176;6.614;2022-12-20T16:23:58;17.10;;;12.57;;
52126;SDS011;38120;53.176;6.614;2022-12-20T16:26:24;19.23;;;12.27;;
52126;SDS011;38120;53.176;6.614;2022-12-20T16:33:51;20.45;;;12.23;;
52126;SDS011;38120;53.176;6.614;2022-12-20T16:36:18;16.58;;;13.68;;
52126;SDS011;38120;53.176;6.614;2022-12-20T16:38:43;19.52;;;15.63;;
52126;SDS011;38120;53.176;6.614;2022-12-20T16:41:13;21.77;;;15.53;;
52126;SDS011;38120;53.176;6.614;2022-12-20T16:43:44;22.52;;;14.77;;
52126;SDS011;38120;53.176;6.614;2022-12-20T16:46:11;20.17;;;16.88;;
52126;SDS011;38120;53.176;6.614;2022-12-20T16:48:40;21.85;;;15.35;;
52126;SDS011;38120;53.176;6.614;2022-12-20T16:51:26;21.30;;;15.48;;
52126;SDS011;38120;53.176;6.614;2022-12-20T16:54:01;20.33;;;14.85;;
52126;SDS011;38120;53.176;6.614;2022-12-20T16:56:30;23.95;;;17.10;;
52126;SDS011;38120;53.176;6.614;2022-12-20T16:58:56;21.75;;;17.38;;
52126;SDS011;38120;53.176;6.614;2022-12-20T17:03:51;20.80;;;15.20;;
52126;SDS011;38120;53.176;6.614;2022-12-20T17:06:17;25.02;;;16.65;;
52126;SDS011;38120;53.176;6.614;2022-12-20T17:11:26;28.80;;;17.45;;
52126;SDS011;38120;53.176;6.614;2022-12-20T17:13:54;26.92;;;17.58;;
52126;SDS011;38120;53.176;6.614;2022-12-20T17:16:20;24.48;;;15.80;;
52126;SDS011;38120;53.176;6.614;2022-12-20T17:18:48;23.63;;;17.05;;
52126;SDS011;38120;53.176;6.614;2022-12-20T17:24:08;21.55;;;17.52;;
52126;SDS011;38120;53.176;6.614;2022-12-20T17:26:43;25.80;;;18.08;;
52126;SDS011;38120;53.176;6.614;2022-12-20T17:29:09;24.95;;;18.83;;
52126;SDS011;38120;53.176;6.614;2022-12-20T17:31:42;28.45;;;18.02;;
52126;SDS011;38120;53.176;6.614;2022-12-20T17:34:14;26.75;;;18.88;;
52126;SDS011;38120;53.176;6.614;2022-12-20T17:36:42;24.92;;;17.83;;
52126;SDS011;38120;53.176;6.614;2022-12-20T17:39:08;24.50;;;17.38;;
52126;SDS011;38120;53.176;6.614;2022-12-20T17:41:34;23.70;;;16.80;;
52126;SDS011;38120;53.176;6.614;2022-12-20T17:46:26;23.70;;;16.80;;
52126;SDS011;38120;53.176;6.614;2022-12-20T17:48:53;26.55;;;18.45;;
52126;SDS011;38120;53.176;6.614;2022-12-20T17:51:20;24.60;;;18.17;;
52126;SDS011;38120;53.176;6.614;2022-12-20T17:53:54;27.17;;;18.02;;
52126;SDS011;38120;53.176;6.614;2022-12-20T17:56:22;25.65;;;18.17;;
52126;SDS011;38120;53.176;6.614;2022-12-20T17:59:00;24.95;;;17.52;;